createdAt,value
2019-03-29T00:00:15.884Z,7.9
2019-03-29T00:01:17.641Z,7.9
2019-03-29T00:02:19.320Z,7.9
2019-03-29T00:03:20.989Z,7.9
2019-03-29T00:04:22.742Z,7.9
2019-03-29T00:05:24.437Z,7.9
2019-03-29T00:06:26.099Z,7.9
2019-03-29T00:07:43.394Z,7.9
2019-03-29T00:08:45.056Z,7.9
2019-03-29T00:09:46.554Z,7.9
2019-03-29T00:10:48.664Z,7.9
2019-03-29T00:11:50.161Z,7.9
2019-03-29T00:12:51.820Z,7.9
2019-03-29T00:13:53.488Z,7.9
2019-03-29T00:14:55.187Z,7.9
2019-03-29T00:15:56.848Z,7.9
2019-03-29T00:16:58.525Z,7.9
2019-03-29T00:17:59.873Z,7.9
2019-03-29T00:19:02.963Z,7.9
2019-03-29T00:20:07.570Z,7.9
2019-03-29T00:21:09.134Z,7.9
2019-03-29T00:22:10.835Z,7.9
2019-03-29T00:23:12.534Z,7.9
2019-03-29T00:24:15.353Z,7.9
2019-03-29T00:25:17.062Z,7.9
2019-03-29T00:26:18.755Z,7.9
2019-03-29T00:27:20.755Z,7.9
2019-03-29T00:28:22.477Z,7.9
2019-03-29T00:29:24.182Z,7.9
2019-03-29T00:30:25.869Z,7.9
2019-03-29T00:31:27.374Z,7.9
2019-03-29T00:32:29.050Z,7.9
2019-03-29T00:33:30.246Z,7.9
2019-03-29T00:34:31.913Z,7.9
2019-03-29T00:35:35.113Z,7.9
2019-03-29T00:36:36.783Z,7.9
2019-03-29T00:37:52.454Z,7.9
2019-03-29T00:38:54.455Z,7.9
2019-03-29T00:39:56.152Z,7.9
2019-03-29T00:40:58.994Z,7.9
2019-03-29T00:42:00.694Z,7.9
2019-03-29T00:43:02.454Z,7.9
2019-03-29T00:44:04.122Z,7.9
2019-03-29T00:45:05.809Z,7.9
2019-03-29T00:46:07.485Z,7.9
2019-03-29T00:47:09.004Z,7.9
2019-03-29T00:48:10.689Z,7.9
2019-03-29T00:49:12.344Z,7.9
2019-03-29T00:50:13.680Z,7.9
2019-03-29T00:51:14.866Z,7.2
2019-03-29T00:52:17.813Z,7.4
2019-03-29T00:53:19.495Z,7.5
2019-03-29T00:54:21.010Z,7.6
2019-03-29T00:55:22.755Z,7.7
2019-03-29T00:56:24.113Z,7.8
2019-03-29T00:57:25.659Z,7.8
2019-03-29T00:58:27.166Z,7.8
2019-03-29T00:59:28.865Z,7.8
2019-03-29T01:00:34.924Z,7.8
2019-03-29T01:01:36.318Z,7.8
2019-03-29T01:02:37.744Z,7.8
2019-03-29T01:03:39.467Z,7.8
2019-03-29T01:04:40.990Z,7.8
2019-03-29T01:05:42.354Z,7.8
2019-03-29T01:06:44.058Z,7.9
2019-03-29T01:07:45.727Z,7.9
2019-03-29T01:08:47.482Z,7.9
2019-03-29T01:09:49.149Z,7.9
2019-03-29T01:10:50.551Z,7.8
2019-03-29T01:11:52.055Z,7.8
2019-03-29T01:12:53.408Z,7.8
2019-03-29T01:13:54.897Z,7.8
2019-03-29T01:14:56.571Z,7.8
2019-03-29T01:15:58.279Z,7.8
2019-03-29T01:16:59.818Z,7.8
2019-03-29T01:18:01.488Z,7.8
2019-03-29T01:19:04.611Z,7.8
2019-03-29T01:20:06.140Z,7.8
2019-03-29T01:21:07.481Z,7.7
2019-03-29T01:22:08.828Z,7.7
2019-03-29T01:23:10.529Z,7.7
2019-03-29T01:24:12.037Z,7.6
2019-03-29T01:25:13.551Z,7.6
2019-03-29T01:26:15.060Z,7.6
2019-03-29T01:27:16.558Z,7.6
2019-03-29T01:28:18.256Z,7.6
2019-03-29T01:29:19.934Z,7.6
2019-03-29T01:30:22.331Z,7.6
2019-03-29T01:31:24.422Z,7.6
2019-03-29T01:32:26.095Z,7.6
2019-03-29T01:33:27.743Z,7.6
2019-03-29T01:34:29.454Z,7.6
2019-03-29T01:35:30.962Z,7.5
2019-03-29T01:36:32.639Z,7.5
2019-03-29T01:37:34.328Z,7.4
2019-03-29T01:38:35.491Z,7.4
2019-03-29T01:39:37.150Z,7.4
2019-03-29T01:40:38.816Z,7.4
2019-03-29T01:41:40.498Z,7.4
2019-03-29T01:42:42.169Z,7.4
2019-03-29T01:43:43.546Z,7.4
2019-03-29T01:44:45.206Z,7.4
2019-03-29T01:45:47.289Z,7.4
2019-03-29T01:46:49.224Z,7.4
2019-03-29T01:47:50.890Z,7.4
2019-03-29T01:48:52.573Z,7.3
2019-03-29T01:49:54.240Z,7.3
2019-03-29T01:50:55.900Z,7.2
2019-03-29T01:51:57.393Z,7.2
2019-03-29T01:52:59.070Z,7.2
2019-03-29T01:54:00.568Z,7.2
2019-03-29T01:55:02.099Z,7.2
2019-03-29T01:56:03.600Z,7.2
2019-03-29T01:57:04.954Z,7.2
2019-03-29T01:58:06.291Z,7.2
2019-03-29T01:59:08.198Z,7.2
2019-03-29T02:00:11.024Z,7.2
2019-03-29T02:01:12.540Z,7.2
2019-03-29T02:02:14.192Z,7.2
2019-03-29T02:03:15.861Z,7.2
2019-03-29T02:04:17.368Z,7.2
2019-03-29T02:05:18.874Z,7.2
2019-03-29T02:06:21.450Z,7.2
2019-03-29T02:07:23.149Z,7.2
2019-03-29T02:08:38.920Z,7.1
2019-03-29T02:09:40.241Z,7.2
2019-03-29T02:10:41.676Z,7.1
2019-03-29T02:11:43.201Z,7.1
2019-03-29T02:12:44.712Z,7.2
2019-03-29T02:13:46.424Z,7.1
2019-03-29T02:14:48.150Z,7.1
2019-03-29T02:15:49.819Z,7.1
2019-03-29T02:16:51.479Z,7.1
2019-03-29T02:17:52.996Z,7.1
2019-03-29T02:18:54.334Z,7.1
2019-03-29T02:19:56.006Z,7.1
2019-03-29T02:20:57.662Z,7.1
2019-03-29T02:21:59.155Z,7.1
2019-03-29T02:23:00.490Z,7.1
2019-03-29T02:24:02.159Z,7.2
2019-03-29T02:25:04.020Z,7.1
2019-03-29T02:26:05.697Z,7.1
2019-03-29T02:27:07.202Z,7.1
2019-03-29T02:28:08.746Z,7.1
2019-03-29T02:29:11.938Z,7.1
2019-03-29T02:30:13.613Z,7.2
2019-03-29T02:31:15.333Z,7.2
2019-03-29T02:32:17.041Z,7.1
2019-03-29T02:33:20.460Z,7.2
2019-03-29T02:34:22.132Z,7.1
2019-03-29T02:35:23.842Z,7.2
2019-03-29T02:36:25.512Z,7.2
2019-03-29T02:37:27.017Z,7.2
2019-03-29T02:38:28.680Z,7.2
2019-03-29T02:39:30.216Z,7.2
2019-03-29T02:40:31.901Z,7.2
2019-03-29T02:41:33.421Z,7.2
2019-03-29T02:42:35.273Z,7.2
2019-03-29T02:43:38.977Z,7.1
2019-03-29T02:44:40.599Z,7.2
2019-03-29T02:45:42.304Z,7.2
2019-03-29T02:46:44.039Z,7.2
2019-03-29T02:47:45.791Z,7.2
2019-03-29T02:48:47.470Z,7.2
2019-03-29T02:49:48.829Z,7.2
2019-03-29T02:50:50.540Z,7.2
2019-03-29T02:51:52.269Z,7.2
2019-03-29T02:52:53.792Z,7.2
2019-03-29T02:53:55.346Z,7.2
2019-03-29T02:54:56.854Z,7.2
2019-03-29T02:55:58.566Z,7.2
2019-03-29T02:57:00.074Z,7.2
2019-03-29T02:58:01.782Z,7.2
2019-03-29T02:59:02.998Z,7.2
2019-03-29T03:00:04.732Z,7.2
2019-03-29T03:01:06.458Z,7.1
2019-03-29T03:02:08.154Z,7.2
2019-03-29T03:03:09.709Z,7.2
2019-03-29T03:04:11.222Z,7.2
2019-03-29T03:05:12.926Z,7.2
2019-03-29T03:06:14.518Z,7.2
2019-03-29T03:07:16.290Z,7.2
2019-03-29T03:08:18.002Z,7.2
2019-03-29T03:09:19.551Z,7.2
2019-03-29T03:10:21.511Z,7.2
2019-03-29T03:11:23.128Z,7.2
2019-03-29T03:12:24.806Z,7.2
2019-03-29T03:13:26.510Z,7.2
2019-03-29T03:14:28.220Z,7.2
2019-03-29T03:15:29.967Z,7.2
2019-03-29T03:16:31.569Z,7.2
2019-03-29T03:17:33.248Z,7.2
2019-03-29T03:18:34.934Z,7.2
2019-03-29T03:19:36.617Z,7.3
2019-03-29T03:20:38.249Z,7.3
2019-03-29T03:21:39.769Z,7.4
2019-03-29T03:22:41.361Z,7.4
2019-03-29T03:23:43.021Z,7.4
2019-03-29T03:24:45.020Z,7.5
2019-03-29T03:25:46.784Z,7.4
2019-03-29T03:26:48.503Z,7.5
2019-03-29T03:27:50.344Z,7.4
2019-03-29T03:28:52.053Z,7.4
2019-03-29T03:29:53.750Z,7.4
2019-03-29T03:30:55.318Z,7.4
2019-03-29T03:31:57.273Z,7.4
2019-03-29T03:32:58.889Z,7.4
2019-03-29T03:34:00.709Z,7.4
2019-03-29T03:35:02.442Z,7.4
2019-03-29T03:36:04.160Z,7.4
2019-03-29T03:37:05.711Z,7.4
2019-03-29T03:38:07.396Z,7.5
2019-03-29T03:39:09.086Z,7.5
2019-03-29T03:40:10.813Z,7.6
2019-03-29T03:41:12.330Z,7.6
2019-03-29T03:42:14.015Z,7.6
2019-03-29T03:43:15.561Z,7.6
2019-03-29T03:44:17.284Z,7.6
2019-03-29T03:45:18.970Z,7.6
2019-03-29T03:46:20.669Z,7.6
2019-03-29T03:47:22.394Z,7.6
2019-03-29T03:48:24.117Z,7.7
2019-03-29T03:49:25.818Z,7.7
2019-03-29T03:50:27.499Z,7.7
2019-03-29T03:51:29.165Z,7.7
2019-03-29T03:52:30.854Z,7.8
2019-03-29T03:53:32.245Z,7.8
2019-03-29T03:54:33.936Z,7.8
2019-03-29T03:55:35.468Z,7.8
2019-03-29T03:56:37.206Z,7.8
2019-03-29T03:57:38.983Z,7.8
2019-03-29T03:58:40.568Z,7.8
2019-03-29T03:59:42.091Z,7.8
2019-03-29T04:00:43.676Z,7.8
2019-03-29T04:01:45.265Z,7.8
2019-03-29T04:02:46.834Z,7.9
2019-03-29T04:03:48.374Z,7.9
2019-03-29T04:04:50.109Z,7.9
2019-03-29T04:05:51.805Z,7.9
2019-03-29T04:06:53.580Z,7.9
2019-03-29T04:07:55.266Z,7.9
2019-03-29T04:08:56.955Z,7.9
2019-03-29T04:09:58.336Z,7.9
2019-03-29T04:10:59.906Z,7.9
2019-03-29T04:12:01.462Z,7.9
2019-03-29T04:13:03.078Z,7.9
2019-03-29T04:14:04.635Z,7.9
2019-03-29T04:15:06.197Z,7.9
2019-03-29T04:16:07.815Z,7.9
2019-03-29T04:17:09.496Z,7.9
2019-03-29T04:18:17.165Z,7.9
2019-03-29T04:19:18.762Z,7.2
2019-03-29T04:20:20.306Z,7.3
2019-03-29T04:21:21.997Z,7.3
2019-03-29T04:22:23.535Z,7.3
2019-03-29T04:23:25.287Z,7.4
2019-03-29T04:24:26.880Z,7.4
2019-03-29T04:25:28.566Z,7.3
2019-03-29T04:26:29.907Z,7.3
2019-03-29T04:27:31.612Z,7.3
2019-03-29T04:28:33.297Z,7.3
2019-03-29T04:29:35.057Z,7.2
2019-03-29T04:30:36.658Z,7.2
2019-03-29T04:31:38.384Z,7.2
2019-03-29T04:32:40.078Z,7.3
2019-03-29T04:33:41.764Z,7.3
2019-03-29T04:34:43.366Z,7.3
2019-03-29T04:35:44.723Z,7.3
2019-03-29T04:36:46.526Z,7.3
2019-03-29T04:37:48.207Z,7.3
2019-03-29T04:38:49.902Z,7.2
2019-03-29T04:40:10.325Z,7.3
2019-03-29T04:41:12.005Z,7.2
2019-03-29T04:42:13.737Z,7.2
2019-03-29T04:43:15.587Z,7.2
2019-03-29T04:44:17.293Z,7.2
2019-03-29T04:45:19.002Z,7.2
2019-03-29T04:46:20.736Z,7.2
2019-03-29T04:47:22.272Z,7.3
2019-03-29T04:48:23.980Z,7.3
2019-03-29T04:49:25.645Z,7.4
2019-03-29T04:50:27.142Z,7.4
2019-03-29T04:51:28.643Z,7.4
2019-03-29T04:52:30.204Z,7.4
2019-03-29T04:53:31.859Z,7.5
2019-03-29T04:54:33.370Z,7.5
2019-03-29T04:55:35.019Z,7.5
2019-03-29T04:56:36.681Z,7.5
2019-03-29T04:57:38.044Z,7.5
2019-03-29T04:58:39.724Z,7.5
2019-03-29T04:59:41.469Z,7.5
2019-03-29T05:00:42.993Z,7.6
2019-03-29T05:01:44.541Z,7.6
2019-03-29T05:02:46.216Z,7.7
2019-03-29T05:03:47.964Z,7.8
2019-03-29T05:04:49.702Z,7.8
2019-03-29T05:05:51.384Z,7.8
2019-03-29T05:06:53.034Z,7.8
2019-03-29T05:07:54.717Z,7.8
2019-03-29T05:08:56.237Z,7.8
2019-03-29T05:09:57.613Z,7.8
2019-03-29T05:10:59.109Z,7.8
2019-03-29T05:12:00.774Z,7.8
2019-03-29T05:13:02.514Z,7.8
2019-03-29T05:14:04.225Z,7.8
2019-03-29T05:15:05.578Z,7.9
2019-03-29T05:16:06.944Z,7.8
2019-03-29T05:17:08.673Z,7.8
2019-03-29T05:18:10.343Z,7.8
2019-03-29T05:19:12.033Z,7.8
2019-03-29T05:20:13.959Z,7.8
2019-03-29T05:21:15.472Z,7.8
2019-03-29T05:22:16.535Z,7.7
2019-03-29T05:23:17.877Z,7.7
2019-03-29T05:24:19.565Z,7.7
2019-03-29T05:25:21.293Z,7.7
2019-03-29T05:26:26.234Z,7.7
2019-03-29T05:27:27.579Z,7.6
2019-03-29T05:28:29.113Z,7.7
2019-03-29T05:29:30.802Z,7.7
2019-03-29T05:30:32.471Z,7.7
2019-03-29T05:31:33.805Z,7.7
2019-03-29T05:32:34.991Z,7.7
2019-03-29T05:33:36.655Z,7.7
2019-03-29T05:34:37.701Z,7.6
2019-03-29T05:35:39.369Z,7.6
2019-03-29T05:36:41.061Z,7.6
2019-03-29T05:37:42.578Z,7.6
2019-03-29T05:38:44.099Z,7.6
2019-03-29T05:39:45.776Z,7.5
2019-03-29T05:40:47.301Z,7.5
2019-03-29T05:41:49.012Z,7.5
2019-03-29T05:42:50.541Z,7.6
2019-03-29T05:43:51.895Z,7.6
2019-03-29T05:44:53.571Z,7.6
2019-03-29T05:45:54.933Z,7.6
2019-03-29T05:46:56.440Z,7.7
2019-03-29T05:47:57.683Z,7.7
2019-03-29T05:48:59.353Z,7.7
2019-03-29T05:50:01.267Z,7.7
2019-03-29T05:51:02.815Z,7.6
2019-03-29T05:52:04.531Z,7.7
2019-03-29T05:53:06.216Z,7.7
2019-03-29T05:54:07.725Z,7.7
2019-03-29T05:55:09.231Z,7.7
2019-03-29T05:56:10.778Z,7.8
2019-03-29T05:57:12.465Z,7.8
2019-03-29T05:58:14.132Z,7.8
2019-03-29T05:59:15.645Z,7.8
2019-03-29T06:00:17.333Z,7.8
2019-03-29T06:01:18.665Z,7.8
2019-03-29T06:02:20.396Z,7.8
2019-03-29T06:03:22.083Z,7.7
2019-03-29T06:04:23.627Z,7.7
2019-03-29T06:05:25.321Z,7.7
2019-03-29T06:06:26.999Z,7.7
2019-03-29T06:07:28.383Z,7.7
2019-03-29T06:08:30.138Z,7.7
2019-03-29T06:09:35.255Z,7.6
2019-03-29T06:10:51.150Z,7.7
2019-03-29T06:11:52.905Z,7.7
2019-03-29T06:12:54.753Z,7.6
2019-03-29T06:13:56.689Z,7.6
2019-03-29T06:14:58.428Z,7.6
2019-03-29T06:16:00.135Z,7.6
2019-03-29T06:17:01.657Z,7.6
2019-03-29T06:18:03.332Z,7.6
2019-03-29T06:19:04.868Z,7.6
2019-03-29T06:20:06.225Z,7.6
2019-03-29T06:21:07.878Z,7.6
2019-03-29T06:22:09.552Z,7.7
2019-03-29T06:23:11.236Z,7.7
2019-03-29T06:24:12.905Z,7.7
2019-03-29T06:25:14.422Z,7.7
2019-03-29T06:26:15.933Z,7.8
2019-03-29T06:27:17.613Z,7.8
2019-03-29T06:28:19.311Z,7.7
2019-03-29T06:29:20.701Z,7.7
2019-03-29T06:30:22.206Z,7.7
2019-03-29T06:31:23.718Z,7.7
2019-03-29T06:32:25.207Z,7.7
2019-03-29T06:33:26.743Z,7.7
2019-03-29T06:34:28.451Z,7.7
2019-03-29T06:35:30.113Z,7.8
2019-03-29T06:36:31.797Z,7.8
2019-03-29T06:37:33.461Z,7.8
2019-03-29T06:38:35.141Z,7.9
2019-03-29T06:39:36.646Z,7.9
2019-03-29T06:40:38.325Z,7.8
2019-03-29T06:41:39.843Z,7.9
2019-03-29T06:42:41.357Z,7.9
2019-03-29T06:43:42.926Z,7.9
2019-03-29T06:44:46.183Z,7.9
2019-03-29T06:45:49.866Z,7.9
2019-03-29T06:46:51.559Z,7.9
2019-03-29T06:47:53.076Z,7.9
2019-03-29T06:48:54.761Z,7.9
2019-03-29T06:49:56.287Z,7.9
2019-03-29T06:50:57.965Z,7.9
2019-03-29T06:51:59.661Z,7.9
2019-03-29T06:53:01.372Z,7.9
2019-03-29T06:54:02.953Z,7.9
2019-03-29T06:55:04.642Z,7.9
2019-03-29T06:56:06.152Z,7.9
2019-03-29T06:57:07.817Z,7.9
2019-03-29T06:58:09.533Z,7.9
2019-03-29T06:59:11.213Z,7.9
2019-03-29T07:00:12.745Z,7.8
2019-03-29T07:01:14.413Z,7.8
2019-03-29T07:02:15.932Z,7.8
2019-03-29T07:03:17.674Z,7.8
2019-03-29T07:04:19.195Z,7.8
2019-03-29T07:05:20.869Z,7.8
2019-03-29T07:06:22.467Z,7.8
2019-03-29T07:07:24.162Z,7.8
2019-03-29T07:08:25.848Z,7.8
2019-03-29T07:09:27.636Z,7.7
2019-03-29T07:10:29.310Z,7.7
2019-03-29T07:11:30.811Z,7.7
2019-03-29T07:12:32.486Z,7.6
2019-03-29T07:13:33.841Z,7.6
2019-03-29T07:14:35.356Z,7.6
2019-03-29T07:15:37.020Z,7.6
2019-03-29T07:16:38.705Z,7.7
2019-03-29T07:17:40.379Z,7.7
2019-03-29T07:18:42.047Z,7.8
2019-03-29T07:19:43.549Z,7.8
2019-03-29T07:20:44.741Z,7.8
2019-03-29T07:21:46.433Z,7.9
2019-03-29T07:22:48.102Z,7.9
2019-03-29T07:23:49.763Z,7.8
2019-03-29T07:24:51.287Z,7.8
2019-03-29T07:25:56.702Z,7.7
2019-03-29T07:26:58.473Z,7.6
2019-03-29T07:28:00.184Z,7.4
2019-03-29T07:29:01.934Z,7.3
2019-03-29T07:30:03.653Z,7.2
2019-03-29T07:31:05.389Z,7.1
2019-03-29T07:32:07.088Z,7.1
2019-03-29T07:33:08.457Z,7.1
2019-03-29T07:34:10.124Z,7.1
2019-03-29T07:35:11.790Z,7.1
2019-03-29T07:36:13.320Z,7.2
2019-03-29T07:37:14.993Z,7.2
2019-03-29T07:38:16.674Z,7.1
2019-03-29T07:39:18.342Z,7.1
2019-03-29T07:40:20.010Z,7.1
2019-03-29T07:41:34.003Z,7.1
2019-03-29T07:42:35.684Z,7.2
2019-03-29T07:43:37.234Z,7.2
2019-03-29T07:44:38.921Z,7.2
2019-03-29T07:45:40.583Z,7.2
2019-03-29T07:46:42.115Z,7.2
2019-03-29T07:47:43.798Z,7.2
2019-03-29T07:48:45.310Z,7.2
2019-03-29T07:49:46.813Z,7.2
2019-03-29T07:50:48.194Z,7.2
2019-03-29T07:51:49.555Z,7.2
2019-03-29T07:52:51.253Z,7.2
2019-03-29T07:53:52.804Z,7.2
2019-03-29T07:54:54.331Z,7.3
2019-03-29T07:55:56.025Z,7.3
2019-03-29T07:56:57.695Z,7.4
2019-03-29T07:57:59.355Z,7.4
2019-03-29T07:59:00.861Z,7.5
2019-03-29T08:00:02.569Z,7.7
2019-03-29T08:01:04.080Z,7.8
2019-03-29T08:02:05.776Z,7.9
2019-03-29T08:03:07.443Z,7.9
2019-03-29T08:04:08.957Z,7.9
2019-03-29T08:05:10.454Z,7.9
2019-03-29T08:06:13.635Z,7.9
2019-03-29T08:07:34.188Z,7.9
2019-03-29T08:08:36.620Z,7.9
2019-03-29T08:09:38.134Z,7.9
2019-03-29T08:10:39.826Z,7.9
2019-03-29T08:11:47.897Z,7.6
2019-03-29T08:12:51.137Z,7.7
2019-03-29T08:13:52.835Z,7.8
2019-03-29T08:14:54.352Z,7.8
2019-03-29T08:15:56.044Z,7.8
2019-03-29T08:16:57.735Z,7.8
2019-03-29T08:18:03.144Z,7.9
2019-03-29T08:19:04.846Z,7.9
2019-03-29T08:20:45.743Z,7.9
2019-03-29T08:21:47.271Z,7.9
2019-03-29T08:22:48.949Z,7.9
2019-03-29T08:23:50.562Z,7.9
2019-03-29T08:24:52.155Z,7.9
2019-03-29T08:25:53.756Z,7.9
2019-03-29T08:26:55.422Z,7.9
2019-03-29T08:27:56.941Z,7.9
2019-03-29T08:28:58.665Z,7.9
2019-03-29T08:30:00.398Z,7.9
2019-03-29T08:31:01.977Z,7.9
2019-03-29T08:32:03.665Z,7.9
2019-03-29T08:33:05.203Z,7.9
2019-03-29T08:34:06.928Z,7.9
2019-03-29T08:35:08.621Z,7.9
2019-03-29T08:36:10.135Z,7.9
2019-03-29T08:37:11.815Z,7.9
2019-03-29T08:38:13.514Z,7.9
2019-03-29T08:39:29.809Z,7.7
2019-03-29T08:40:31.349Z,7.8
2019-03-29T08:41:32.877Z,7.8
2019-03-29T08:42:34.397Z,7.9
2019-03-29T08:43:35.732Z,7.9
2019-03-29T08:44:37.263Z,7.9
2019-03-29T08:45:39.048Z,7.9
2019-03-29T08:46:40.734Z,7.9
2019-03-29T08:47:42.234Z,7.9
2019-03-29T08:48:43.986Z,7.9
2019-03-29T08:49:45.749Z,7.9
2019-03-29T08:50:47.445Z,7.9
2019-03-29T08:51:49.122Z,7.9
2019-03-29T08:52:50.826Z,7.9
2019-03-29T08:53:52.371Z,7.9
2019-03-29T08:54:53.871Z,7.9
2019-03-29T08:55:55.395Z,7.8
2019-03-29T08:56:56.931Z,7.8
2019-03-29T08:57:58.605Z,7.8
2019-03-29T08:59:00.286Z,7.8
2019-03-29T09:00:02.037Z,7.8
2019-03-29T09:01:03.738Z,7.8
2019-03-29T09:02:05.521Z,7.7
2019-03-29T09:03:07.210Z,7.7
2019-03-29T09:04:08.895Z,7.7
2019-03-29T09:05:10.385Z,7.7
2019-03-29T09:06:12.099Z,7.6
2019-03-29T09:07:13.517Z,7.6
2019-03-29T09:08:15.139Z,7.6
2019-03-29T09:09:16.658Z,7.5
2019-03-29T09:10:18.334Z,7.4
2019-03-29T09:11:20.015Z,7.3
2019-03-29T09:12:21.550Z,7.2
2019-03-29T09:13:23.233Z,7.2
2019-03-29T09:14:24.919Z,7.2
2019-03-29T09:15:26.424Z,7.2
2019-03-29T09:16:28.115Z,7.2
2019-03-29T09:17:29.447Z,7.1
2019-03-29T09:18:30.964Z,7.2
2019-03-29T09:19:32.674Z,7.2
2019-03-29T09:20:36.195Z,7.2
2019-03-29T09:21:37.935Z,7.2
2019-03-29T09:22:39.667Z,7.2
2019-03-29T09:23:41.352Z,7.2
2019-03-29T09:24:42.865Z,7.2
2019-03-29T09:25:44.233Z,7.2
2019-03-29T09:26:45.929Z,7.2
2019-03-29T09:27:47.606Z,7.2
2019-03-29T09:28:48.958Z,7.2
2019-03-29T09:29:50.644Z,7.2
2019-03-29T09:30:52.142Z,7.2
2019-03-29T09:31:53.668Z,7.2
2019-03-29T09:32:55.370Z,7.2
2019-03-29T09:34:00.140Z,7.2
2019-03-29T09:35:02.015Z,7.2
2019-03-29T09:36:06.646Z,7.2
2019-03-29T09:37:07.994Z,7.2
2019-03-29T09:38:09.805Z,7.2
2019-03-29T09:39:11.335Z,7.2
2019-03-29T09:40:15.735Z,7.2
2019-03-29T09:41:17.422Z,7.2
2019-03-29T09:42:31.870Z,7.2
2019-03-29T09:43:33.061Z,7.2
2019-03-29T09:44:34.564Z,7.2
2019-03-29T09:45:36.295Z,7.2
2019-03-29T09:46:37.817Z,7.2
2019-03-29T09:47:42.457Z,7.2
2019-03-29T09:48:44.057Z,7.2
2019-03-29T09:49:45.843Z,7.2
2019-03-29T09:50:52.449Z,7.3
2019-03-29T09:51:54.134Z,7.3
2019-03-29T09:52:55.516Z,7.3
2019-03-29T09:53:59.677Z,7.3
2019-03-29T09:55:01.637Z,7.3
2019-03-29T09:56:03.324Z,7.3
2019-03-29T09:57:04.883Z,7.4
2019-03-29T09:58:06.406Z,7.4
2019-03-29T09:59:07.914Z,7.3
2019-03-29T10:00:25.044Z,7.4
2019-03-29T10:01:27.211Z,7.4
2019-03-29T10:02:29.021Z,7.5
2019-03-29T10:03:30.695Z,7.6
2019-03-29T10:04:32.381Z,7.7
2019-03-29T10:05:33.911Z,7.8
2019-03-29T10:06:35.258Z,7.4
2019-03-29T10:07:36.754Z,7.6
2019-03-29T10:08:38.265Z,7.8
2019-03-29T10:09:39.995Z,7.9
2019-03-29T10:10:41.696Z,7.6
2019-03-29T10:11:43.400Z,7.8
2019-03-29T10:12:45.753Z,7.8
2019-03-29T10:13:47.273Z,7.9
2019-03-29T10:14:48.795Z,7.9
2019-03-29T10:15:53.135Z,7.9
2019-03-29T10:16:54.655Z,7.9
2019-03-29T10:17:56.181Z,7.9
2019-03-29T10:18:57.527Z,7.9
2019-03-29T10:19:59.205Z,7.9
2019-03-29T10:21:00.549Z,7.9
2019-03-29T10:22:02.238Z,7.9
2019-03-29T10:23:03.771Z,7.9
2019-03-29T10:24:05.228Z,7.9
2019-03-29T10:25:22.539Z,7.8
2019-03-29T10:26:24.085Z,7.8
2019-03-29T10:27:25.760Z,7.9
2019-03-29T10:28:27.269Z,7.9
2019-03-29T10:29:28.663Z,7.9
2019-03-29T10:30:30.176Z,7.9
2019-03-29T10:31:34.338Z,7.9
2019-03-29T10:32:36.023Z,7.9
2019-03-29T10:33:37.557Z,7.9
2019-03-29T10:34:39.313Z,7.9
2019-03-29T10:35:54.395Z,7.9
2019-03-29T10:36:55.915Z,7.9
2019-03-29T10:37:57.575Z,7.8
2019-03-29T10:38:59.102Z,7.8
2019-03-29T10:40:00.671Z,7.7
2019-03-29T10:41:02.193Z,7.7
2019-03-29T10:42:03.722Z,7.6
2019-03-29T10:43:05.171Z,7.6
2019-03-29T10:44:06.693Z,7.6
2019-03-29T10:45:08.052Z,7.6
2019-03-29T10:46:09.405Z,7.6
2019-03-29T10:47:11.104Z,7.6
2019-03-29T10:48:12.119Z,7.6
2019-03-29T10:50:30.916Z,7.7
2019-03-29T10:51:32.642Z,7.7
2019-03-29T10:52:34.173Z,7.7
2019-03-29T10:53:35.863Z,7.7
2019-03-29T10:54:37.359Z,7.6
2019-03-29T10:55:38.878Z,7.6
2019-03-29T10:56:40.565Z,7.5
2019-03-29T10:57:42.258Z,7.4
2019-03-29T10:58:46.587Z,7.4
2019-03-29T10:59:48.114Z,7.3
2019-03-29T11:00:49.883Z,7.3
2019-03-29T11:01:51.388Z,7.3
2019-03-29T11:02:52.900Z,7.3
2019-03-29T11:03:54.582Z,7.3
2019-03-29T11:04:56.337Z,7.4
2019-03-29T11:05:57.675Z,7.4
2019-03-29T11:06:59.365Z,7.4
2019-03-29T11:08:00.886Z,7.4
2019-03-29T11:09:02.426Z,7.4
2019-03-29T11:10:04.119Z,7.3
2019-03-29T11:11:05.655Z,7.2
2019-03-29T11:12:07.363Z,7.1
2019-03-29T11:13:15.721Z,7.1
2019-03-29T11:14:17.407Z,7.1
2019-03-29T11:15:18.755Z,7.1
2019-03-29T11:16:20.286Z,7.1
2019-03-29T11:17:21.983Z,7.1
2019-03-29T11:18:23.660Z,7.1
2019-03-29T11:19:25.333Z,7.1
2019-03-29T11:20:26.867Z,7.1
2019-03-29T11:21:28.457Z,7.1
2019-03-29T11:22:29.983Z,7.1
2019-03-29T11:23:31.325Z,7.1
2019-03-29T11:24:32.849Z,7.1
2019-03-29T11:25:34.386Z,7.1
2019-03-29T11:26:35.883Z,7.1
2019-03-29T11:27:37.413Z,7.1
2019-03-29T11:28:39.074Z,7.1
2019-03-29T11:29:40.591Z,7.1
2019-03-29T11:30:44.483Z,7.1
2019-03-29T11:31:46.275Z,7.2
2019-03-29T11:32:47.785Z,7.1
2019-03-29T11:33:49.297Z,7.2
2019-03-29T11:34:51.021Z,7.2
2019-03-29T11:35:52.714Z,7.2
2019-03-29T11:36:54.665Z,7.2
2019-03-29T11:37:56.190Z,7.2
2019-03-29T11:38:57.895Z,7.2
2019-03-29T11:39:59.429Z,7.2
2019-03-29T11:41:01.125Z,7.2
2019-03-29T11:42:05.203Z,7.2
2019-03-29T11:43:06.738Z,7.2
2019-03-29T11:44:08.348Z,7.2
2019-03-29T11:45:10.055Z,7.2
2019-03-29T11:46:11.595Z,7.2
2019-03-29T11:47:13.281Z,7.2
2019-03-29T11:48:14.652Z,7.2
2019-03-29T11:49:16.331Z,7.3
2019-03-29T11:50:18.015Z,7.3
2019-03-29T11:51:21.507Z,7.3
2019-03-29T11:52:23.221Z,7.3
2019-03-29T11:53:24.741Z,7.3
2019-03-29T11:54:26.425Z,7.3
2019-03-29T11:55:27.805Z,7.3
2019-03-29T11:56:29.504Z,7.4
2019-03-29T11:57:31.461Z,7.4
2019-03-29T11:58:33.155Z,7.4
2019-03-29T11:59:34.714Z,7.4
2019-03-29T12:00:36.404Z,7.4
2019-03-29T12:01:37.762Z,7.5
2019-03-29T12:02:39.443Z,7.6
2019-03-29T12:03:41.168Z,7.8
2019-03-29T12:04:42.863Z,7.9
2019-03-29T12:05:44.223Z,7.9
2019-03-29T12:06:45.889Z,7.9
2019-03-29T12:07:47.622Z,7.9
2019-03-29T12:08:49.004Z,7.9
2019-03-29T12:09:50.703Z,7.9
2019-03-29T12:10:52.474Z,7.9
2019-03-29T12:11:53.991Z,7.9
2019-03-29T12:12:55.654Z,7.2
2019-03-29T12:13:57.176Z,7.3
2019-03-29T12:14:58.677Z,7.4
2019-03-29T12:16:00.184Z,7.5
2019-03-29T12:17:01.870Z,7.6
2019-03-29T12:18:03.557Z,7.7
2019-03-29T12:19:05.259Z,7.8
2019-03-29T12:20:06.766Z,7.9
2019-03-29T12:21:08.494Z,7.9
2019-03-29T12:22:10.174Z,7.9
2019-03-29T12:23:11.603Z,7.9
2019-03-29T12:24:13.268Z,7.9
2019-03-29T12:25:14.794Z,7.9
2019-03-29T12:26:16.556Z,7.9
2019-03-29T12:27:18.067Z,7.9
2019-03-29T12:28:19.724Z,7.9
2019-03-29T12:29:21.253Z,7.9
2019-03-29T12:30:33.657Z,7.9
2019-03-29T12:31:35.390Z,7.9
2019-03-29T12:32:36.926Z,7.9
2019-03-29T12:33:38.630Z,7.9
2019-03-29T12:34:40.334Z,7.9
2019-03-29T12:35:41.704Z,7.9
2019-03-29T12:36:43.245Z,7.9
2019-03-29T12:37:44.949Z,7.9
2019-03-29T12:38:46.665Z,7.8
2019-03-29T12:39:48.203Z,7.8
2019-03-29T12:40:49.896Z,7.8
2019-03-29T12:41:51.607Z,7.7
2019-03-29T12:42:53.315Z,7.7
2019-03-29T12:43:57.645Z,7.6
2019-03-29T12:44:59.174Z,7.6
2019-03-29T12:46:00.537Z,7.6
2019-03-29T12:47:02.240Z,7.6
2019-03-29T12:48:03.864Z,7.6
2019-03-29T12:49:05.295Z,7.7
2019-03-29T12:50:06.968Z,7.7
2019-03-29T12:51:08.664Z,7.7
2019-03-29T12:52:10.376Z,7.7
2019-03-29T12:53:11.892Z,7.7
2019-03-29T12:54:14.041Z,7.7
2019-03-29T12:55:15.538Z,7.7
2019-03-29T12:56:17.213Z,7.6
2019-03-29T12:57:18.738Z,7.6
2019-03-29T12:58:20.463Z,7.6
2019-03-29T12:59:22.198Z,7.5
2019-03-29T13:00:24.064Z,7.5
2019-03-29T13:01:41.715Z,7.5
2019-03-29T13:02:43.406Z,7.5
2019-03-29T13:03:44.926Z,7.6
2019-03-29T13:04:49.150Z,7.6
2019-03-29T13:05:50.869Z,7.6
2019-03-29T13:06:52.575Z,7.7
2019-03-29T13:07:54.885Z,7.7
2019-03-29T13:08:56.674Z,7.7
2019-03-29T13:09:58.338Z,7.7
2019-03-29T13:10:59.711Z,7.7
2019-03-29T13:12:01.260Z,7.7
2019-03-29T13:13:02.812Z,7.7
2019-03-29T13:14:12.365Z,7.7
2019-03-29T13:15:14.043Z,7.7
2019-03-29T13:16:15.763Z,7.7
2019-03-29T13:17:17.439Z,7.7
2019-03-29T13:18:18.802Z,7.6
2019-03-29T13:19:20.325Z,7.6
2019-03-29T13:20:21.866Z,7.6
2019-03-29T13:21:23.394Z,7.6
2019-03-29T13:22:25.114Z,7.6
2019-03-29T13:23:26.811Z,7.6
2019-03-29T13:24:28.361Z,7.6
2019-03-29T13:25:29.913Z,7.6
2019-03-29T13:26:31.434Z,7.6
2019-03-29T13:27:32.978Z,7.7
2019-03-29T13:28:34.665Z,7.8
2019-03-29T13:29:36.333Z,7.8
2019-03-29T13:30:37.866Z,7.8
2019-03-29T13:31:39.562Z,7.8
2019-03-29T13:32:41.035Z,7.8
2019-03-29T13:33:42.729Z,7.7
2019-03-29T13:34:44.332Z,7.6
2019-03-29T13:35:46.250Z,7.5
2019-03-29T13:36:47.843Z,7.3
2019-03-29T13:37:49.516Z,7.2
2019-03-29T13:38:50.886Z,7.1
2019-03-29T13:39:52.576Z,7.1
2019-03-29T13:40:53.949Z,7.1
2019-03-29T13:41:55.646Z,7.1
2019-03-29T13:42:57.341Z,7.1
2019-03-29T13:43:58.856Z,7.1
2019-03-29T13:45:00.673Z,7.1
2019-03-29T13:46:02.172Z,7.1
2019-03-29T13:47:03.694Z,7.1
2019-03-29T13:48:05.213Z,7.1
2019-03-29T13:49:07.070Z,7.1
2019-03-29T13:50:08.772Z,7.1
2019-03-29T13:51:10.543Z,7.1
2019-03-29T13:52:12.125Z,7.1
2019-03-29T13:53:13.631Z,7.1
2019-03-29T13:54:15.320Z,7.1
2019-03-29T13:55:16.861Z,7.1
2019-03-29T13:56:18.375Z,7.1
2019-03-29T13:57:20.063Z,7.1
2019-03-29T13:58:21.404Z,7.1
2019-03-29T13:59:22.924Z,7.1
2019-03-29T14:00:24.627Z,7.1
2019-03-29T14:01:26.379Z,7.1
2019-03-29T14:02:28.066Z,7.1
2019-03-29T14:03:29.796Z,7.1
2019-03-29T14:04:31.513Z,7.1
2019-03-29T14:05:33.255Z,7.1
2019-03-29T14:06:34.815Z,7.1
2019-03-29T14:07:36.544Z,7.2
2019-03-29T14:08:37.926Z,7.2
2019-03-29T14:09:39.285Z,7.2
2019-03-29T14:10:40.626Z,7.2
2019-03-29T14:11:42.167Z,7.2
2019-03-29T14:12:43.856Z,7.2
2019-03-29T14:13:45.438Z,7.3
2019-03-29T14:14:47.334Z,7.4
2019-03-29T14:15:48.894Z,7.5